createdAt,value
2018-09-19T00:00:16.073Z,2.70
2018-09-19T00:02:45.122Z,5.53
2018-09-19T00:05:14.107Z,3.13
2018-09-19T00:07:43.080Z,6.20
2018-09-19T00:10:12.196Z,3.33
2018-09-19T00:12:41.167Z,4.73
2018-09-19T00:15:10.003Z,3.73
2018-09-19T00:17:38.861Z,2.50
2018-09-19T00:20:07.887Z,2.90
2018-09-19T00:22:37.120Z,3.20
2018-09-19T00:25:06.004Z,2.83
2018-09-19T00:27:34.813Z,3.17
2018-09-19T00:30:03.907Z,4.43
2018-09-19T00:32:32.672Z,4.47
2018-09-19T00:35:01.513Z,4.03
2018-09-19T00:37:30.463Z,3.90
2018-09-19T00:39:59.329Z,4.00
2018-09-19T00:42:28.204Z,3.80
2018-09-19T00:44:57.074Z,3.63
2018-09-19T00:47:25.931Z,3.60
2018-09-19T00:49:54.837Z,3.83
2018-09-19T00:52:23.761Z,3.93
2018-09-19T00:54:52.657Z,4.53
2018-09-19T00:57:21.597Z,4.93
2018-09-19T00:59:50.504Z,3.13
2018-09-19T01:02:19.365Z,4.90
2018-09-19T01:04:48.155Z,6.50
2018-09-19T01:07:17.322Z,3.77
2018-09-19T01:09:46.221Z,4.53
2018-09-19T01:29:31.559Z,4.47
2018-09-19T01:32:00.577Z,4.77
2018-09-19T01:34:30.393Z,4.00
2018-09-19T01:36:59.303Z,4.47
2018-09-19T01:39:28.855Z,6.50
2018-09-19T01:41:57.666Z,6.43
2018-09-19T01:44:27.281Z,5.13
2018-09-19T01:46:56.072Z,5.40
2018-09-19T01:49:26.039Z,5.40
2018-09-19T01:51:55.365Z,8.10
2018-09-19T01:54:25.209Z,6.10
2018-09-19T01:56:54.581Z,4.23
2018-09-19T01:59:23.316Z,4.77
2018-09-19T02:01:52.190Z,6.63
2018-09-19T02:04:21.743Z,7.30
2018-09-19T02:06:51.668Z,5.70
2018-09-19T02:09:20.470Z,6.60
2018-09-19T02:11:49.250Z,5.47
2018-09-19T02:14:18.273Z,5.43
2018-09-19T02:16:47.856Z,5.80
2018-09-19T02:19:16.791Z,4.40
2018-09-19T02:21:46.367Z,5.73
2018-09-19T02:24:15.279Z,4.90
2018-09-19T02:26:44.165Z,5.67
2018-09-19T02:29:13.415Z,8.53
2018-09-19T02:31:43.668Z,4.63
2018-09-19T02:34:13.377Z,5.10
2018-09-19T02:36:42.288Z,5.73
2018-09-19T02:39:11.558Z,4.00
2018-09-19T02:41:40.384Z,6.53
2018-09-19T02:44:09.987Z,5.70
2018-09-19T02:46:39.395Z,5.40
2018-09-19T02:49:08.322Z,6.90
2018-09-19T02:51:37.170Z,8.53
2018-09-19T02:54:06.435Z,5.00
2018-09-19T02:56:35.315Z,4.47
2018-09-19T02:59:05.834Z,5.77
2018-09-19T03:01:34.670Z,4.30
2018-09-19T03:04:05.018Z,5.67
2018-09-19T03:06:34.060Z,5.03
2018-09-19T03:09:04.987Z,8.10
2018-09-19T03:11:34.532Z,4.47
2018-09-19T03:14:03.897Z,4.93
2018-09-19T03:16:33.402Z,7.57
2018-09-19T03:19:03.152Z,3.70
2018-09-19T03:21:32.882Z,6.13
2018-09-19T03:24:03.886Z,3.50
2018-09-19T03:26:34.963Z,4.73
2018-09-19T03:29:04.922Z,5.40
2018-09-19T03:31:33.798Z,5.63
2018-09-19T03:34:02.842Z,5.67
2018-09-19T03:36:32.513Z,5.70
2018-09-19T03:39:01.461Z,8.00
2018-09-19T03:41:31.061Z,7.03
2018-09-19T03:44:00.611Z,4.90
2018-09-19T03:46:30.285Z,5.00
2018-09-19T03:48:59.220Z,5.17
2018-09-19T03:51:28.124Z,5.30
2018-09-19T03:53:57.722Z,6.07
2018-09-19T03:56:26.619Z,5.10
2018-09-19T03:58:55.429Z,5.00
2018-09-19T04:01:24.384Z,5.13
2018-09-19T04:03:53.367Z,6.70
2018-09-19T04:06:22.273Z,6.67
2018-09-19T04:08:51.211Z,7.67
2018-09-19T04:11:20.146Z,7.80
2018-09-19T04:13:49.067Z,9.23
2018-09-19T04:16:17.975Z,5.70
2018-09-19T04:18:46.924Z,7.77
2018-09-19T04:21:24.221Z,6.10
2018-09-19T04:23:53.310Z,6.13
2018-09-19T04:26:22.305Z,6.80
2018-09-19T04:28:51.296Z,7.90
2018-09-19T04:31:20.355Z,7.10
2018-09-19T04:33:49.333Z,5.23
2018-09-19T04:36:19.098Z,6.20
2018-09-19T04:38:48.043Z,6.30
2018-09-19T04:41:17.106Z,6.17
2018-09-19T04:43:46.040Z,6.53
2018-09-19T04:46:15.230Z,9.07
2018-09-19T04:48:44.903Z,12.90
2018-09-19T04:51:13.890Z,7.87
2018-09-19T04:53:42.995Z,7.80
2018-09-19T04:56:12.160Z,7.63
2018-09-19T04:58:41.160Z,10.37
2018-09-19T05:01:10.057Z,9.63
2018-09-19T05:03:39.671Z,11.93
2018-09-19T05:06:08.829Z,7.43
2018-09-19T05:08:37.927Z,11.20
2018-09-19T05:11:07.365Z,11.53
2018-09-19T05:13:36.520Z,13.47
2018-09-19T05:16:06.522Z,10.17
2018-09-19T05:18:35.616Z,11.63
2018-09-19T05:21:05.484Z,9.53
2018-09-19T05:23:35.075Z,13.53
2018-09-19T05:26:04.237Z,11.13
2018-09-19T05:28:33.481Z,12.93
2018-09-19T05:31:03.052Z,9.33
2018-09-19T05:33:32.182Z,15.00
2018-09-19T05:36:01.406Z,15.07
2018-09-19T05:38:30.538Z,13.20
2018-09-19T05:41:00.862Z,14.93
2018-09-19T05:43:30.060Z,11.13
2018-09-19T05:45:59.166Z,10.40
2018-09-19T05:48:28.261Z,17.47
2018-09-19T05:50:58.150Z,10.23
2018-09-19T05:53:28.336Z,11.10
2018-09-19T05:55:57.502Z,11.00
2018-09-19T05:58:26.883Z,12.90
2018-09-19T06:00:55.922Z,8.20
2018-09-19T06:03:25.125Z,8.97
2018-09-19T06:05:59.122Z,7.67
2018-09-19T06:08:28.222Z,16.30
2018-09-19T06:10:57.389Z,7.83
2018-09-19T06:13:26.473Z,9.20
2018-09-19T06:15:55.575Z,7.27
2018-09-19T06:18:24.825Z,9.07
2018-09-19T06:20:53.805Z,10.23
2018-09-19T06:23:22.873Z,13.20
2018-09-19T06:25:52.268Z,10.00
2018-09-19T06:28:21.369Z,12.60
2018-09-19T06:30:50.511Z,9.07
2018-09-19T06:33:19.922Z,15.03
2018-09-19T06:35:48.979Z,9.83
2018-09-19T06:38:18.056Z,12.90
2018-09-19T06:40:47.529Z,16.63
2018-09-19T06:43:16.544Z,10.87
2018-09-19T06:45:45.709Z,11.00
2018-09-19T06:48:15.028Z,11.80
2018-09-19T06:50:44.031Z,15.83
2018-09-19T06:53:13.113Z,11.13
2018-09-19T06:55:43.261Z,7.73
2018-09-19T06:58:12.423Z,8.67
2018-09-19T07:00:41.366Z,8.33
2018-09-19T07:03:10.477Z,14.93
2018-09-19T07:05:39.758Z,13.73
2018-09-19T07:08:09.065Z,10.20
2018-09-19T07:10:38.354Z,13.30
2018-09-19T07:30:25.059Z,7.13
2018-09-19T07:32:54.012Z,9.97
2018-09-19T07:35:22.941Z,7.83
2018-09-19T07:37:51.865Z,8.40
2018-09-19T07:40:20.938Z,7.73
2018-09-19T07:42:49.852Z,11.30
2018-09-19T07:45:18.821Z,12.70
2018-09-19T07:47:48.097Z,15.37
2018-09-19T07:50:17.038Z,9.70
2018-09-19T07:52:45.886Z,12.10
2018-09-19T07:55:14.866Z,11.03
2018-09-19T07:57:43.678Z,11.70
2018-09-19T08:00:12.673Z,15.73
2018-09-19T08:02:42.590Z,21.77
2018-09-19T08:05:11.525Z,9.13
2018-09-19T08:07:40.575Z,9.80
2018-09-19T08:10:09.629Z,12.40
2018-09-19T08:12:38.620Z,8.90
2018-09-19T08:15:07.666Z,10.57
2018-09-19T08:17:36.643Z,10.20
2018-09-19T08:20:05.675Z,11.07
2018-09-19T08:22:34.710Z,8.30
2018-09-19T08:25:03.785Z,10.30
2018-09-19T08:27:32.661Z,8.60
2018-09-19T08:30:01.517Z,10.70
2018-09-19T08:32:30.458Z,9.03
2018-09-19T08:34:59.357Z,11.07
2018-09-19T08:37:28.491Z,7.87
2018-09-19T08:39:57.361Z,13.30
2018-09-19T08:42:26.384Z,9.27
2018-09-19T08:44:55.369Z,12.77
2018-09-19T08:47:24.298Z,12.10
2018-09-19T08:49:53.634Z,7.80
2018-09-19T08:52:22.987Z,12.67
2018-09-19T08:54:52.165Z,8.87
2018-09-19T08:57:21.769Z,11.10
2018-09-19T08:59:50.663Z,10.73
2018-09-19T09:02:25.873Z,8.37
2018-09-19T09:04:55.083Z,9.30
2018-09-19T09:07:24.184Z,9.43
2018-09-19T09:09:53.253Z,14.00
2018-09-19T09:12:22.294Z,10.53
2018-09-19T09:14:51.255Z,8.73
2018-09-19T09:17:20.243Z,11.30
2018-09-19T09:19:56.079Z,11.40
2018-09-19T09:22:25.048Z,11.20
2018-09-19T09:24:53.955Z,11.33
2018-09-19T09:27:23.047Z,7.90
2018-09-19T09:29:51.971Z,8.83
2018-09-19T09:32:20.999Z,9.77
2018-09-19T09:34:49.855Z,11.00
2018-09-19T09:37:19.065Z,14.03
2018-09-19T09:39:47.952Z,10.27
2018-09-19T09:42:16.978Z,8.60
2018-09-19T09:44:45.926Z,9.93
2018-09-19T09:47:14.949Z,9.37
2018-09-19T09:49:43.937Z,8.20
2018-09-19T09:52:12.901Z,8.23
2018-09-19T09:54:41.873Z,11.43
2018-09-19T09:57:10.845Z,10.43
2018-09-19T09:59:39.799Z,8.40
2018-09-19T10:02:09.136Z,8.87
2018-09-19T10:04:38.173Z,12.23
2018-09-19T10:07:07.390Z,15.00
2018-09-19T10:09:36.284Z,13.33
2018-09-19T10:12:05.281Z,12.23
2018-09-19T10:14:34.238Z,11.57
2018-09-19T10:17:03.052Z,9.20
2018-09-19T10:19:32.066Z,10.40
2018-09-19T10:22:01.098Z,8.23
2018-09-19T10:24:31.611Z,9.40
2018-09-19T10:27:00.556Z,10.00
2018-09-19T10:29:29.542Z,10.60
2018-09-19T10:31:58.416Z,11.57
2018-09-19T10:34:27.314Z,12.50
2018-09-19T10:36:56.290Z,9.13
2018-09-19T10:39:25.162Z,7.93
2018-09-19T10:41:54.107Z,12.93
2018-09-19T10:44:23.107Z,6.70
2018-09-19T10:46:52.033Z,12.63
2018-09-19T10:49:21.403Z,7.87
2018-09-19T10:51:50.321Z,11.40
2018-09-19T10:54:19.341Z,10.40
2018-09-19T10:56:48.249Z,16.40
2018-09-19T10:59:17.279Z,11.43
2018-09-19T11:01:46.581Z,12.13
2018-09-19T11:04:15.870Z,10.40
2018-09-19T11:06:44.849Z,14.07
2018-09-19T11:09:13.896Z,17.70
2018-09-19T11:11:42.941Z,13.97
2018-09-19T11:14:12.053Z,13.60
2018-09-19T11:16:41.017Z,13.57
2018-09-19T11:19:10.158Z,11.50
2018-09-19T11:21:39.079Z,14.97
2018-09-19T11:24:15.274Z,12.23
2018-09-19T11:26:44.196Z,12.57
2018-09-19T11:29:13.217Z,11.13
2018-09-19T11:31:42.175Z,20.03
2018-09-19T11:34:11.160Z,15.63
2018-09-19T11:36:39.989Z,10.63
2018-09-19T11:39:11.000Z,12.93
2018-09-19T11:41:40.073Z,17.87
2018-09-19T11:44:09.398Z,10.03
2018-09-19T11:46:38.367Z,10.40
2018-09-19T11:49:07.558Z,12.73
2018-09-19T11:51:35.838Z,14.20
2018-09-19T11:54:03.350Z,17.30
2018-09-19T11:56:31.173Z,12.43
2018-09-19T11:58:58.672Z,17.30
2018-09-19T12:01:26.387Z,14.00
2018-09-19T12:03:53.947Z,11.70
2018-09-19T12:06:21.447Z,12.00
2018-09-19T12:08:49.070Z,10.17
2018-09-19T12:11:16.675Z,12.07
2018-09-19T12:13:44.286Z,15.23
2018-09-19T12:16:11.847Z,13.43
2018-09-19T12:18:39.413Z,13.47
2018-09-19T12:21:08.390Z,16.37
2018-09-19T12:23:37.381Z,13.43
2018-09-19T12:26:06.359Z,11.23
2018-09-19T12:28:35.366Z,11.60
2018-09-19T12:31:04.493Z,9.53
2018-09-19T12:33:33.426Z,9.97
2018-09-19T12:36:02.455Z,10.70
2018-09-19T12:38:31.494Z,16.93
2018-09-19T12:41:00.437Z,11.57
2018-09-19T12:43:29.435Z,11.77
2018-09-19T12:45:58.521Z,17.83
2018-09-19T12:48:27.622Z,10.10
2018-09-19T12:50:56.537Z,10.30
2018-09-19T12:53:25.613Z,17.70
2018-09-19T12:55:55.229Z,16.40
2018-09-19T12:58:24.249Z,9.53
2018-09-19T13:00:53.740Z,15.50
2018-09-19T13:03:22.790Z,11.60
2018-09-19T13:05:53.482Z,10.77
2018-09-19T13:08:22.471Z,10.83
2018-09-19T13:10:51.554Z,9.07
2018-09-19T13:13:20.622Z,10.87
2018-09-19T13:15:49.588Z,10.47
2018-09-19T13:18:18.542Z,9.73
2018-09-19T13:20:47.501Z,11.07
2018-09-19T13:23:18.002Z,10.80
2018-09-19T13:25:47.244Z,12.00
2018-09-19T13:28:16.350Z,11.53
2018-09-19T13:30:45.238Z,11.83
2018-09-19T13:33:14.448Z,10.80
2018-09-19T13:35:43.644Z,9.20
2018-09-19T13:38:12.955Z,9.33
2018-09-19T13:40:42.122Z,11.20
2018-09-19T13:43:11.389Z,16.00
2018-09-19T13:45:40.433Z,10.13
2018-09-19T13:48:09.835Z,9.47
2018-09-19T13:50:46.797Z,14.47
2018-09-19T13:53:18.916Z,12.20
2018-09-19T13:55:53.066Z,11.87
2018-09-19T13:58:22.167Z,11.23
2018-09-19T14:00:51.452Z,10.20
2018-09-19T14:03:20.597Z,10.77
2018-09-19T14:05:49.884Z,11.40
2018-09-19T14:08:25.574Z,8.83
2018-09-19T14:10:54.644Z,9.03
2018-09-19T14:13:23.642Z,9.70
2018-09-19T14:15:52.629Z,11.80
2018-09-19T14:18:22.333Z,8.67
2018-09-19T14:20:50.090Z,9.43
2018-09-19T14:23:17.793Z,11.27
2018-09-19T14:25:45.525Z,12.77
2018-09-19T14:28:13.347Z,11.97
2018-09-19T14:30:41.037Z,14.63
2018-09-19T14:33:08.832Z,17.53
2018-09-19T14:35:36.645Z,10.50
2018-09-19T14:38:04.322Z,10.00
2018-09-19T14:40:31.944Z,14.90
2018-09-19T14:42:59.553Z,8.40
2018-09-19T14:45:27.298Z,10.40
2018-09-19T14:47:54.931Z,9.67
2018-09-19T14:50:22.533Z,13.67
2018-09-19T14:52:50.155Z,8.60
2018-09-19T14:55:17.912Z,12.10
2018-09-19T14:57:45.617Z,10.80
2018-09-19T15:00:13.134Z,8.90
2018-09-19T15:02:41.212Z,9.10
2018-09-19T15:05:08.835Z,10.00
2018-09-19T15:07:36.487Z,10.00
2018-09-19T15:10:04.197Z,12.80
2018-09-19T15:12:31.889Z,11.53
2018-09-19T15:15:01.826Z,12.40
2018-09-19T15:17:30.926Z,12.73
2018-09-19T15:20:00.029Z,17.33
2018-09-19T15:22:29.163Z,13.23
2018-09-19T15:24:58.093Z,9.10
2018-09-19T15:27:27.224Z,10.43
2018-09-19T15:29:56.288Z,9.30
2018-09-19T15:32:25.548Z,14.70
2018-09-19T15:34:54.565Z,12.60
2018-09-19T15:37:23.621Z,8.60
2018-09-19T15:39:52.813Z,9.07
2018-09-19T15:42:21.891Z,8.60
2018-09-19T15:44:50.854Z,8.70
2018-09-19T15:47:19.877Z,7.03
2018-09-19T15:49:48.859Z,9.93
2018-09-19T15:52:17.992Z,7.17
2018-09-19T15:54:47.017Z,8.20
2018-09-19T15:57:17.186Z,10.87
2018-09-19T15:59:46.290Z,11.60
2018-09-19T16:02:19.031Z,14.67
2018-09-19T16:04:48.178Z,7.20
2018-09-19T16:07:17.332Z,14.50
2018-09-19T16:09:46.420Z,8.90
2018-09-19T16:12:15.624Z,12.00
2018-09-19T16:14:44.713Z,8.03
2018-09-19T16:17:13.926Z,10.70
2018-09-19T16:19:42.925Z,8.80
2018-09-19T16:22:12.018Z,9.73
2018-09-19T16:24:50.428Z,9.90
2018-09-19T16:27:19.962Z,11.10
2018-09-19T16:29:49.014Z,9.27
2018-09-19T16:32:18.001Z,9.30
2018-09-19T16:34:47.125Z,8.30
2018-09-19T16:37:16.202Z,11.37
2018-09-19T16:39:45.531Z,12.33
2018-09-19T16:42:14.713Z,7.53
2018-09-19T16:44:43.885Z,6.60
2018-09-19T16:47:13.037Z,9.13
2018-09-19T16:49:42.036Z,9.03
2018-09-19T16:52:11.290Z,8.13
2018-09-19T16:54:40.278Z,7.37
2018-09-19T16:57:09.213Z,5.33
2018-09-19T16:59:38.259Z,8.37
2018-09-19T17:02:07.616Z,8.80
2018-09-19T17:04:36.663Z,7.57
2018-09-19T17:07:05.978Z,14.33
2018-09-19T17:09:35.040Z,6.27
2018-09-19T17:12:04.066Z,6.23
2018-09-19T17:14:33.046Z,8.13
2018-09-19T17:17:03.175Z,5.60
2018-09-19T17:19:38.770Z,6.47
2018-09-19T17:22:07.924Z,5.67
2018-09-19T17:24:36.896Z,6.10
2018-09-19T17:27:06.140Z,8.77
2018-09-19T17:29:35.137Z,6.70
2018-09-19T17:32:04.630Z,7.70
2018-09-19T17:34:34.100Z,7.43
2018-09-19T17:37:03.318Z,9.23
2018-09-19T17:39:32.378Z,8.70
2018-09-19T17:42:01.420Z,10.30
2018-09-19T17:44:32.561Z,7.93
2018-09-19T17:47:01.616Z,12.40
2018-09-19T17:49:31.047Z,6.67
2018-09-19T17:52:03.214Z,11.17
2018-09-19T17:54:32.651Z,9.70
2018-09-19T17:57:02.240Z,7.10
2018-09-19T17:59:31.732Z,9.47
2018-09-19T18:02:00.932Z,8.00
2018-09-19T18:04:30.184Z,10.17
2018-09-19T18:06:59.209Z,8.10
2018-09-19T18:09:34.968Z,9.40
2018-09-19T18:12:03.965Z,7.33
2018-09-19T18:14:32.988Z,8.93
2018-09-19T18:17:08.589Z,12.43
2018-09-19T18:19:37.598Z,12.00
2018-09-19T18:22:06.631Z,12.40
2018-09-19T18:24:35.587Z,13.03
2018-09-19T18:27:04.548Z,15.93
2018-09-19T18:29:33.759Z,11.70
2018-09-19T18:32:03.140Z,11.80
2018-09-19T18:34:32.179Z,12.00
2018-09-19T18:37:01.151Z,9.90
2018-09-19T18:39:30.163Z,12.10
2018-09-19T18:41:59.089Z,17.73
2018-09-19T18:44:28.039Z,11.30
2018-09-19T18:46:57.016Z,15.73
2018-09-19T18:49:26.111Z,17.20
2018-09-19T18:51:56.166Z,20.20
2018-09-19T18:54:25.593Z,18.67
2018-09-19T18:56:54.741Z,15.83
2018-09-19T18:59:23.813Z,15.53
2018-09-19T19:01:52.766Z,12.90
2018-09-19T19:04:21.906Z,12.23
2018-09-19T19:06:50.926Z,12.07
2018-09-19T19:09:20.012Z,14.57
2018-09-19T19:11:49.016Z,14.23
2018-09-19T19:14:18.199Z,14.73
2018-09-19T19:16:47.169Z,14.70
2018-09-19T19:19:16.288Z,15.10
2018-09-19T19:21:45.392Z,13.03
2018-09-19T19:24:14.489Z,16.50
2018-09-19T19:26:43.344Z,18.70
2018-09-19T19:29:12.457Z,16.80
2018-09-19T19:31:41.550Z,20.30
2018-09-19T19:34:10.801Z,14.07
2018-09-19T19:36:39.785Z,14.93
2018-09-19T19:39:10.376Z,21.33
2018-09-19T19:41:39.379Z,17.50
2018-09-19T19:44:08.377Z,16.63
2018-09-19T19:46:37.788Z,18.00
2018-09-19T19:49:06.737Z,20.83
2018-09-19T19:51:35.790Z,22.33
2018-09-19T19:54:04.808Z,17.80
2018-09-19T19:56:33.713Z,27.33
2018-09-19T19:59:03.651Z,20.77
2018-09-19T20:01:32.634Z,24.07
2018-09-19T20:04:01.766Z,19.93
2018-09-19T20:06:30.714Z,19.27
2018-09-19T20:09:02.226Z,21.40
2018-09-19T20:11:38.527Z,21.87
2018-09-19T20:14:07.652Z,20.77
2018-09-19T20:16:36.639Z,16.63
2018-09-19T20:19:05.949Z,20.60
2018-09-19T20:21:34.932Z,19.57
2018-09-19T20:24:04.250Z,18.43
2018-09-19T20:26:33.275Z,21.13
2018-09-19T20:29:02.320Z,23.37
2018-09-19T20:31:32.300Z,18.57
2018-09-19T20:34:01.178Z,18.13
2018-09-19T20:36:31.236Z,20.90
2018-09-19T20:39:00.247Z,18.07
2018-09-19T20:41:29.336Z,30.57
2018-09-19T20:43:58.313Z,18.80
2018-09-19T20:46:27.321Z,22.23
2018-09-19T20:48:56.335Z,18.67
2018-09-19T20:51:25.348Z,22.03
2018-09-19T20:53:54.557Z,25.00
2018-09-19T20:56:23.471Z,25.23
2018-09-19T20:58:53.124Z,19.60
2018-09-19T21:01:22.019Z,21.33
2018-09-19T21:03:54.615Z,21.83
2018-09-19T21:06:25.117Z,22.00
2018-09-19T21:08:54.371Z,22.30
2018-09-19T21:11:23.297Z,22.27
2018-09-19T21:13:50.873Z,25.93
2018-09-19T21:16:19.869Z,20.80
2018-09-19T21:18:48.840Z,24.60
2018-09-19T21:21:17.770Z,24.30
2018-09-19T21:23:46.829Z,20.77
2018-09-19T21:26:15.867Z,22.93
2018-09-19T21:28:44.807Z,27.03
2018-09-19T21:31:13.761Z,22.80
2018-09-19T21:33:42.687Z,23.93
2018-09-19T21:36:11.667Z,22.50
2018-09-19T21:38:43.024Z,23.23
2018-09-19T21:41:11.978Z,22.10
2018-09-19T21:43:40.830Z,21.50
2018-09-19T21:46:09.810Z,20.40
2018-09-19T21:48:38.857Z,22.70
2018-09-19T21:51:07.989Z,20.53
2018-09-19T21:53:36.976Z,23.20
2018-09-19T21:56:05.829Z,21.70
2018-09-19T21:58:34.718Z,30.27
2018-09-19T22:01:09.894Z,28.90
2018-09-19T22:03:41.180Z,27.57
2018-09-19T22:06:10.344Z,20.07
2018-09-19T22:08:39.338Z,26.30
2018-09-19T22:11:08.428Z,21.50
2018-09-19T22:13:37.385Z,20.00
2018-09-19T22:16:06.234Z,20.87
2018-09-19T22:18:35.264Z,20.30
2018-09-19T22:21:04.261Z,25.60
2018-09-19T22:23:33.204Z,27.00
2018-09-19T22:26:02.287Z,22.50
2018-09-19T22:28:31.195Z,18.90
2018-09-19T22:31:00.225Z,17.50
2018-09-19T22:33:29.078Z,20.20
2018-09-19T22:35:58.527Z,22.67
2018-09-19T22:38:28.592Z,20.10
2018-09-19T22:40:57.469Z,14.70
2018-09-19T22:43:26.433Z,18.23
2018-09-19T22:45:55.371Z,15.03
2018-09-19T22:48:24.612Z,19.27
2018-09-19T22:50:53.553Z,17.60
2018-09-19T22:53:22.517Z,17.50
2018-09-19T22:55:51.452Z,16.70
2018-09-19T22:58:20.389Z,21.07
2018-09-19T23:00:49.244Z,21.60
2018-09-19T23:03:18.101Z,18.80
2018-09-19T23:05:47.112Z,19.53
2018-09-19T23:08:16.087Z,15.17
2018-09-19T23:10:44.973Z,13.90
2018-09-19T23:13:13.929Z,15.77
2018-09-19T23:15:42.870Z,17.73
2018-09-19T23:18:11.813Z,17.73
2018-09-19T23:20:40.688Z,15.60
2018-09-19T23:23:09.561Z,15.97
2018-09-19T23:25:39.504Z,17.43
2018-09-19T23:28:08.390Z,23.30
2018-09-19T23:30:37.270Z,15.30
2018-09-19T23:33:06.154Z,17.27
2018-09-19T23:35:35.282Z,16.17
2018-09-19T23:38:04.749Z,17.13
2018-09-19T23:40:34.065Z,17.43
2018-09-19T23:43:03.099Z,15.13
2018-09-19T23:45:31.930Z,15.23
2018-09-19T23:48:00.813Z,14.67
2018-09-19T23:50:29.748Z,15.17
2018-09-19T23:52:58.682Z,14.07
2018-09-19T23:55:27.590Z,15.50
2018-09-19T23:57:56.565Z,12.50
